createdAt,value
2018-04-29T00:00:56.208Z,8.82
2018-04-29T00:03:24.618Z,7.72
2018-04-29T00:05:53.037Z,8.07
2018-04-29T00:08:22.218Z,8.13
2018-04-29T00:10:51.639Z,7.00
2018-04-29T00:13:20.043Z,6.37
2018-04-29T00:15:49.202Z,7.60
2018-04-29T00:18:17.574Z,6.05
2018-04-29T00:20:45.974Z,10.38
2018-04-29T00:23:14.374Z,8.70
2018-04-29T00:25:42.757Z,7.40
2018-04-29T00:28:11.161Z,6.40
2018-04-29T00:30:40.423Z,6.70
2018-04-29T00:33:08.827Z,8.30
2018-04-29T00:35:37.211Z,8.23
2018-04-29T00:38:05.582Z,6.50
2018-04-29T00:40:33.952Z,8.13
2018-04-29T00:43:02.353Z,14.00
2018-04-29T00:45:30.737Z,7.20
2018-04-29T00:47:59.163Z,5.80
2018-04-29T00:50:27.568Z,6.20
2018-04-29T00:52:55.942Z,5.60
2018-04-29T00:55:24.322Z,7.57
2018-04-29T00:57:52.712Z,8.45
2018-04-29T01:00:21.093Z,6.78
2018-04-29T01:02:49.604Z,7.05
2018-04-29T01:05:18.009Z,8.38
2018-04-29T01:10:10.991Z,9.25
2018-04-29T01:12:39.365Z,6.10
2018-04-29T01:15:07.747Z,9.73
2018-04-29T01:17:36.137Z,7.97
2018-04-29T01:20:04.574Z,9.85
2018-04-29T01:22:32.978Z,6.70
2018-04-29T01:25:01.356Z,10.82
2018-04-29T01:27:29.723Z,7.00
2018-04-29T01:29:58.094Z,9.18
2018-04-29T01:32:26.463Z,8.10
2018-04-29T01:34:54.832Z,8.63
2018-04-29T01:37:24.015Z,7.55
2018-04-29T01:39:52.437Z,5.93
2018-04-29T01:42:20.850Z,7.05
2018-04-29T01:44:49.237Z,6.50
2018-04-29T01:47:17.593Z,8.30
2018-04-29T01:49:45.984Z,5.72
2018-04-29T01:52:14.363Z,6.93
2018-04-29T01:54:42.770Z,5.43
2018-04-29T01:57:11.182Z,8.02
2018-04-29T01:59:39.543Z,6.87
2018-04-29T02:02:07.953Z,7.68
2018-04-29T02:04:36.344Z,9.02
2018-04-29T02:07:05.502Z,7.18
2018-04-29T02:09:33.887Z,10.35
2018-04-29T02:12:02.258Z,7.50
2018-04-29T02:14:30.663Z,5.97
2018-04-29T02:16:59.057Z,6.37
2018-04-29T02:19:27.443Z,4.07
2018-04-29T02:21:55.813Z,6.90
2018-04-29T02:24:24.204Z,4.87
2018-04-29T02:26:52.581Z,8.02
2018-04-29T02:29:21.009Z,5.57
2018-04-29T02:31:50.161Z,7.43
2018-04-29T02:34:19.357Z,6.00
2018-04-29T02:36:47.729Z,8.52
2018-04-29T02:39:16.100Z,4.68
2018-04-29T02:41:44.483Z,11.30
2018-04-29T02:44:12.868Z,4.87
2018-04-29T02:46:41.257Z,4.55
2018-04-29T02:49:09.626Z,9.00
2018-04-29T02:51:38.017Z,4.65
2018-04-29T02:54:06.494Z,6.00
2018-04-29T02:56:34.914Z,6.72
2018-04-29T02:59:03.305Z,4.25
2018-04-29T03:01:31.671Z,6.32
2018-04-29T03:04:00.067Z,6.03
2018-04-29T03:06:28.458Z,6.62
2018-04-29T03:08:56.877Z,6.55
2018-04-29T03:11:25.303Z,8.45
2018-04-29T03:13:53.694Z,5.72
2018-04-29T03:16:22.081Z,8.15
2018-04-29T03:18:50.470Z,5.20
2018-04-29T03:21:19.006Z,6.70
2018-04-29T03:23:47.545Z,4.93
2018-04-29T03:26:16.622Z,5.57
2018-04-29T03:28:45.826Z,6.20
2018-04-29T03:31:14.183Z,6.40
2018-04-29T03:33:43.395Z,5.35
2018-04-29T03:36:11.795Z,5.97
2018-04-29T03:38:40.926Z,6.60
2018-04-29T03:41:09.336Z,6.10
2018-04-29T03:43:38.457Z,6.03
2018-04-29T03:46:06.913Z,5.05
2018-04-29T03:48:36.082Z,5.95
2018-04-29T03:51:04.445Z,5.72
2018-04-29T03:53:32.874Z,5.50
2018-04-29T03:56:02.065Z,7.07
2018-04-29T04:01:53.742Z,5.05
2018-04-29T04:04:22.137Z,7.62
2018-04-29T04:06:50.535Z,5.32
2018-04-29T04:09:18.934Z,5.57
2018-04-29T04:11:47.307Z,5.25
2018-04-29T04:14:15.785Z,8.18
2018-04-29T04:16:44.170Z,7.05
2018-04-29T04:19:12.570Z,7.00
2018-04-29T04:21:41.748Z,7.97
2018-04-29T04:24:10.646Z,5.55
2018-04-29T04:26:39.026Z,9.35
2018-04-29T04:29:07.418Z,14.40
2018-04-29T04:31:35.785Z,8.63
2018-04-29T04:34:04.246Z,8.15
2018-04-29T04:36:32.595Z,8.07
2018-04-29T04:39:01.752Z,10.38
2018-04-29T04:41:30.134Z,6.87
2018-04-29T04:43:58.564Z,8.25
2018-04-29T04:46:26.942Z,13.00
2018-04-29T04:48:56.080Z,7.47
2018-04-29T04:51:24.453Z,5.55
2018-04-29T04:53:52.853Z,10.65
2018-04-29T04:56:21.524Z,7.57
2018-04-29T04:58:49.928Z,8.52
2018-04-29T05:01:18.308Z,6.60
2018-04-29T05:03:46.690Z,8.50
2018-04-29T05:06:15.076Z,5.35
2018-04-29T05:08:43.458Z,5.37
2018-04-29T05:11:11.834Z,10.05
2018-04-29T05:13:40.254Z,8.40
2018-04-29T05:16:08.693Z,6.40
2018-04-29T05:18:37.087Z,11.35
2018-04-29T05:21:05.487Z,6.82
2018-04-29T05:23:33.934Z,7.68
2018-04-29T05:26:02.340Z,6.30
2018-04-29T05:28:30.757Z,7.37
2018-04-29T05:30:59.145Z,5.30
2018-04-29T05:33:28.306Z,6.80
2018-04-29T05:35:56.714Z,6.80
2018-04-29T05:38:25.095Z,6.40
2018-04-29T05:40:53.463Z,8.00
2018-04-29T05:43:22.645Z,6.60
2018-04-29T05:45:51.057Z,7.50
2018-04-29T05:48:19.440Z,6.87
2018-04-29T05:50:47.830Z,4.65
2018-04-29T05:53:16.218Z,13.32
2018-04-29T05:55:44.730Z,7.25
2018-04-29T05:58:13.933Z,6.37
2018-04-29T06:00:43.114Z,6.03
2018-04-29T06:03:12.295Z,9.63
2018-04-29T06:05:40.738Z,7.12
2018-04-29T06:08:09.141Z,5.15
2018-04-29T06:10:37.553Z,6.37
2018-04-29T06:13:05.936Z,8.02
2018-04-29T06:15:34.366Z,5.33
2018-04-29T06:18:02.748Z,6.55
2018-04-29T06:20:31.212Z,6.70
2018-04-29T06:22:59.560Z,5.60
2018-04-29T06:25:27.978Z,8.55
2018-04-29T06:27:57.129Z,5.35
2018-04-29T06:30:26.310Z,4.77
2018-04-29T06:32:54.717Z,10.52
2018-04-29T06:35:23.126Z,8.65
2018-04-29T06:37:51.527Z,6.03
2018-04-29T06:40:20.797Z,5.17
2018-04-29T06:42:49.206Z,7.30
2018-04-29T06:45:17.593Z,5.97
2018-04-29T06:47:45.992Z,5.30
2018-04-29T06:50:15.165Z,7.27
2018-04-29T06:52:43.606Z,7.00
2018-04-29T06:55:12.034Z,6.63
2018-04-29T06:57:40.406Z,7.47
2018-04-29T07:00:08.833Z,7.47
2018-04-29T07:02:37.233Z,5.30
2018-04-29T07:05:05.657Z,8.60
2018-04-29T07:07:34.063Z,6.05
2018-04-29T07:10:03.235Z,7.07
2018-04-29T07:12:31.710Z,10.97
2018-04-29T07:15:00.094Z,9.90
2018-04-29T07:17:28.534Z,10.50
2018-04-29T07:19:57.831Z,7.13
2018-04-29T07:22:26.239Z,9.80
2018-04-29T07:24:54.685Z,6.33
2018-04-29T07:27:23.862Z,12.30
2018-04-29T07:29:53.133Z,6.83
2018-04-29T07:32:21.538Z,7.23
2018-04-29T07:34:50.909Z,9.77
2018-04-29T07:37:20.315Z,8.40
2018-04-29T07:39:49.714Z,6.30
2018-04-29T07:42:18.890Z,7.17
2018-04-29T07:44:47.294Z,7.30
2018-04-29T07:47:16.469Z,6.03
2018-04-29T07:49:44.878Z,5.87
2018-04-29T07:52:14.068Z,11.10
2018-04-29T07:54:42.475Z,5.50
2018-04-29T07:57:10.915Z,8.23
2018-04-29T07:59:39.326Z,8.50
2018-04-29T08:02:08.563Z,7.90
2018-04-29T08:04:37.047Z,9.53
2018-04-29T08:07:05.462Z,9.80
2018-04-29T08:09:33.890Z,7.47
2018-04-29T08:12:03.077Z,9.63
2018-04-29T08:14:32.277Z,7.33
2018-04-29T08:17:01.517Z,8.13
2018-04-29T08:19:29.906Z,7.80
2018-04-29T08:21:58.362Z,8.20
2018-04-29T08:24:26.791Z,7.90
2018-04-29T08:26:55.265Z,9.40
2018-04-29T08:29:23.694Z,8.90
2018-04-29T08:31:52.097Z,8.07
2018-04-29T08:34:21.336Z,7.13
2018-04-29T08:36:49.814Z,11.47
2018-04-29T08:39:18.250Z,9.67
2018-04-29T08:41:47.474Z,8.50
2018-04-29T08:44:16.612Z,5.50
2018-04-29T08:46:45.050Z,12.33
2018-04-29T08:49:15.074Z,9.43
2018-04-29T08:51:44.316Z,5.30
2018-04-29T08:54:12.855Z,5.17
2018-04-29T08:56:42.072Z,7.37
2018-04-29T08:59:10.529Z,5.83
2018-04-29T09:01:39.057Z,9.23
2018-04-29T09:04:07.425Z,10.63
2018-04-29T09:06:35.826Z,5.73
2018-04-29T09:09:04.998Z,6.13
2018-04-29T09:11:34.163Z,5.70
2018-04-29T09:14:02.598Z,5.80
2018-04-29T09:16:31.759Z,5.70
2018-04-29T09:19:00.213Z,7.67
2018-04-29T09:21:28.632Z,5.37
2018-04-29T09:23:57.018Z,5.80
2018-04-29T09:26:25.488Z,4.93
2018-04-29T09:28:54.668Z,7.80
2018-04-29T09:31:23.111Z,5.97
2018-04-29T09:33:52.295Z,5.80
2018-04-29T09:36:20.711Z,6.33
2018-04-29T09:38:49.137Z,5.97
2018-04-29T09:41:18.299Z,8.50
2018-04-29T09:43:46.688Z,4.10
2018-04-29T09:46:15.069Z,3.40
2018-04-29T09:48:43.566Z,5.30
2018-04-29T09:51:11.956Z,9.70
2018-04-29T09:53:40.391Z,4.97
2018-04-29T09:56:09.569Z,5.60
2018-04-29T09:58:37.988Z,5.23
2018-04-29T10:01:12.641Z,3.93
2018-04-29T10:03:41.794Z,6.23
2018-04-29T10:06:10.194Z,6.00
2018-04-29T10:08:39.378Z,5.20
2018-04-29T10:11:07.769Z,5.60
2018-04-29T10:13:36.157Z,8.50
2018-04-29T10:16:05.393Z,4.83
2018-04-29T10:18:33.841Z,5.93
2018-04-29T10:21:03.047Z,2.80
2018-04-29T10:23:32.256Z,4.20
2018-04-29T10:26:01.451Z,3.90
2018-04-29T10:28:30.630Z,5.97
2018-04-29T10:30:59.043Z,4.40
2018-04-29T10:33:28.216Z,3.83
2018-04-29T10:35:56.645Z,4.70
2018-04-29T10:38:25.027Z,8.40
2018-04-29T10:40:53.429Z,5.17
2018-04-29T10:43:21.821Z,5.83
2018-04-29T10:45:50.991Z,5.50
2018-04-29T10:48:19.414Z,3.50
2018-04-29T10:50:47.868Z,4.20
2018-04-29T10:53:18.347Z,5.70
2018-04-29T10:55:46.758Z,3.40
2018-04-29T10:58:15.952Z,5.50
2018-04-29T11:00:45.124Z,4.87
2018-04-29T11:03:13.525Z,9.63
2018-04-29T11:05:41.976Z,5.73
2018-04-29T11:08:10.383Z,5.50
2018-04-29T11:10:38.794Z,4.77
2018-04-29T11:13:07.930Z,7.97
2018-04-29T11:15:36.395Z,4.73
2018-04-29T11:18:04.799Z,5.07
2018-04-29T11:20:33.235Z,5.00
2018-04-29T11:23:01.668Z,8.20
2018-04-29T11:25:30.085Z,5.40
2018-04-29T11:27:58.471Z,5.90
2018-04-29T11:30:26.861Z,9.13
2018-04-29T11:32:55.245Z,7.67
2018-04-29T11:35:23.718Z,10.30
2018-04-29T11:37:52.109Z,5.93
2018-04-29T11:40:20.588Z,7.70
2018-04-29T11:42:48.922Z,6.63
2018-04-29T11:45:17.330Z,5.53
2018-04-29T11:47:45.755Z,6.80
2018-04-29T11:50:14.163Z,6.17
2018-04-29T11:52:42.569Z,7.33
2018-04-29T11:55:10.944Z,9.30
2018-04-29T11:57:39.393Z,5.37
2018-04-29T12:00:07.775Z,5.10
2018-04-29T12:02:37.055Z,5.67
2018-04-29T12:05:05.345Z,6.20
2018-04-29T12:07:33.743Z,4.93
2018-04-29T12:10:02.897Z,5.17
2018-04-29T12:12:31.266Z,4.87
2018-04-29T12:14:59.681Z,9.10
2018-04-29T12:17:28.062Z,4.20
2018-04-29T12:19:56.469Z,4.30
2018-04-29T12:22:24.901Z,3.87
2018-04-29T12:24:53.301Z,6.33
2018-04-29T12:27:21.720Z,6.70
2018-04-29T12:29:50.098Z,7.40
2018-04-29T12:32:18.481Z,6.97
2018-04-29T12:34:46.951Z,5.40
2018-04-29T12:37:15.377Z,4.30
2018-04-29T12:39:44.609Z,5.87
2018-04-29T12:42:13.017Z,4.77
2018-04-29T12:44:41.404Z,5.07
2018-04-29T12:47:10.579Z,8.07
2018-04-29T12:49:38.970Z,5.47
2018-04-29T12:52:07.395Z,6.83
2018-04-29T12:54:35.804Z,6.10
2018-04-29T12:57:04.962Z,4.10
2018-04-29T12:59:33.450Z,4.13
2018-04-29T13:02:01.940Z,4.80
2018-04-29T13:04:30.345Z,7.67
2018-04-29T13:06:59.521Z,3.23
2018-04-29T13:09:27.931Z,5.40
2018-04-29T13:11:57.202Z,4.80
2018-04-29T13:14:25.601Z,4.73
2018-04-29T13:16:54.009Z,5.50
2018-04-29T13:19:23.237Z,5.80
2018-04-29T13:21:51.789Z,6.00
2018-04-29T13:24:20.168Z,4.30
2018-04-29T13:26:49.343Z,8.83
2018-04-29T13:29:17.747Z,3.27
2018-04-29T13:31:46.153Z,3.73
2018-04-29T13:34:15.291Z,3.50
2018-04-29T13:36:43.712Z,3.50
2018-04-29T13:39:12.105Z,4.87
2018-04-29T13:41:41.258Z,3.93
2018-04-29T13:44:09.632Z,4.93
2018-04-29T13:46:38.012Z,4.50
2018-04-29T13:49:06.397Z,3.40
2018-04-29T13:51:34.820Z,4.90
2018-04-29T13:54:03.247Z,4.80
2018-04-29T13:56:32.425Z,5.20
2018-04-29T13:59:00.777Z,7.13
2018-04-29T14:01:29.161Z,6.30
2018-04-29T14:03:57.590Z,8.43
2018-04-29T14:06:26.732Z,8.57
2018-04-29T14:08:55.109Z,4.00
2018-04-29T14:11:23.501Z,5.63
2018-04-29T14:13:51.893Z,5.07
2018-04-29T14:16:20.307Z,5.37
2018-04-29T14:18:48.698Z,4.50
2018-04-29T14:21:17.846Z,4.90
2018-04-29T14:23:46.257Z,9.47
2018-04-29T14:26:14.666Z,7.17
2018-04-29T14:28:43.917Z,5.80
2018-04-29T14:31:12.332Z,5.83
2018-04-29T14:33:40.699Z,7.93
2018-04-29T14:36:09.838Z,8.30
2018-04-29T14:38:39.048Z,5.30
2018-04-29T14:41:07.438Z,7.60
2018-04-29T14:43:35.835Z,6.67
2018-04-29T14:46:04.230Z,4.30
2018-04-29T14:48:32.610Z,6.40
2018-04-29T14:51:01.069Z,5.13
2018-04-29T14:53:29.479Z,10.00
2018-04-29T14:55:57.915Z,6.70
2018-04-29T14:58:26.260Z,8.90
2018-04-29T15:00:55.419Z,8.20
2018-04-29T15:03:23.794Z,7.93
2018-04-29T15:05:53.030Z,9.43
2018-04-29T15:08:22.202Z,8.20
2018-04-29T15:10:50.607Z,8.10
2018-04-29T15:13:19.000Z,5.73
2018-04-29T15:15:47.385Z,7.43
2018-04-29T15:18:33.551Z,6.33
2018-04-29T15:21:01.936Z,4.60
2018-04-29T15:23:30.326Z,8.23
2018-04-29T15:25:58.678Z,5.87
2018-04-29T15:28:27.854Z,12.00
2018-04-29T15:30:56.223Z,7.90
2018-04-29T15:33:24.612Z,5.30
2018-04-29T15:35:53.006Z,11.73
2018-04-29T15:38:21.391Z,8.27
2018-04-29T15:40:50.560Z,10.17
2018-04-29T15:43:18.945Z,10.20
2018-04-29T15:45:47.330Z,8.27
2018-04-29T15:48:16.487Z,5.90
2018-04-29T15:50:45.807Z,7.50
2018-04-29T15:53:14.381Z,8.23
2018-04-29T15:55:43.606Z,8.67
2018-04-29T15:58:11.979Z,11.77
2018-04-29T16:00:40.594Z,7.30
2018-04-29T16:03:09.089Z,7.43
2018-04-29T16:05:37.483Z,6.10
2018-04-29T16:08:05.926Z,6.43
2018-04-29T16:10:34.347Z,6.40
2018-04-29T16:13:02.773Z,4.20
2018-04-29T16:15:32.099Z,5.83
2018-04-29T16:18:00.498Z,5.83
2018-04-29T16:20:28.890Z,9.07
2018-04-29T16:22:57.397Z,7.03
2018-04-29T16:25:25.831Z,7.60
2018-04-29T16:27:54.292Z,4.60
2018-04-29T16:30:23.463Z,10.00
2018-04-29T16:32:52.606Z,9.63
2018-04-29T16:35:20.989Z,6.50
2018-04-29T16:37:49.402Z,6.53
2018-04-29T16:40:17.818Z,8.00
2018-04-29T16:42:46.213Z,14.07
2018-04-29T16:45:14.726Z,13.77
2018-04-29T16:47:43.877Z,8.03
2018-04-29T16:50:13.093Z,6.80
2018-04-29T16:52:41.482Z,8.43
2018-04-29T16:55:09.929Z,10.17
2018-04-29T16:57:38.349Z,13.33
2018-04-29T17:00:06.754Z,9.27
2018-04-29T17:02:35.901Z,12.20
2018-04-29T17:05:04.298Z,10.83
2018-04-29T17:07:32.707Z,11.23
2018-04-29T17:10:01.098Z,10.13
2018-04-29T17:12:30.296Z,7.27
2018-04-29T17:14:58.701Z,11.60
2018-04-29T17:17:27.861Z,6.03
2018-04-29T17:19:56.255Z,8.87
2018-04-29T17:22:24.664Z,8.00
2018-04-29T17:24:53.825Z,8.27
2018-04-29T17:27:22.241Z,8.10
2018-04-29T17:29:51.421Z,6.23
2018-04-29T17:32:19.865Z,19.03
2018-04-29T17:34:48.391Z,25.10
2018-04-29T17:37:16.810Z,39.07
2018-04-29T17:39:45.183Z,8.33
2018-04-29T17:42:14.332Z,6.60
2018-04-29T17:44:42.782Z,42.87
2018-04-29T17:47:11.174Z,17.70
2018-04-29T17:49:39.617Z,11.30
2018-04-29T17:52:08.030Z,9.47
2018-04-29T17:54:36.452Z,14.23
2018-04-29T17:57:04.915Z,8.30
2018-04-29T17:59:33.281Z,11.30
2018-04-29T18:02:01.758Z,9.43
2018-04-29T18:04:30.913Z,8.07
2018-04-29T18:06:59.309Z,14.43
2018-04-29T18:09:27.727Z,19.73
2018-04-29T18:11:56.921Z,19.10
2018-04-29T18:14:26.105Z,9.47
2018-04-29T18:16:54.532Z,10.73
2018-04-29T18:19:22.915Z,12.17
2018-04-29T18:21:51.305Z,12.20
2018-04-29T18:24:19.710Z,13.83
2018-04-29T18:26:48.099Z,10.30
2018-04-29T18:29:16.484Z,10.13
2018-04-29T18:31:44.905Z,22.10
2018-04-29T18:34:13.366Z,14.17
2018-04-29T18:36:41.751Z,22.77
2018-04-29T18:39:10.170Z,22.13
2018-04-29T18:41:39.329Z,18.97
2018-04-29T18:44:07.826Z,13.60
2018-04-29T18:46:36.314Z,12.83
2018-04-29T18:49:04.747Z,7.77
2018-04-29T18:51:33.322Z,14.43
2018-04-29T18:54:01.660Z,15.77
2018-04-29T18:56:30.103Z,10.60
2018-04-29T18:58:58.869Z,8.93
2018-04-29T19:01:27.301Z,8.30
2018-04-29T19:03:55.723Z,12.30
2018-04-29T19:06:24.153Z,10.23
2018-04-29T19:08:52.605Z,9.17
2018-04-29T19:11:21.908Z,6.83
2018-04-29T19:13:51.063Z,6.73
2018-04-29T19:16:19.480Z,8.07
2018-04-29T19:18:48.098Z,6.23
2018-04-29T19:21:16.516Z,12.37
2018-04-29T19:23:44.915Z,7.80
2018-04-29T19:26:13.791Z,7.17
2018-04-29T19:28:42.226Z,5.80
2018-04-29T19:31:11.402Z,6.57
2018-04-29T19:33:39.805Z,6.47
2018-04-29T19:36:08.980Z,8.60
2018-04-29T19:38:37.367Z,9.00
2018-04-29T19:41:05.797Z,10.87
2018-04-29T19:43:34.175Z,9.10
2018-04-29T19:46:02.554Z,4.83
2018-04-29T19:48:30.946Z,6.73
2018-04-29T19:50:59.365Z,6.67
2018-04-29T19:53:27.883Z,8.43
2018-04-29T19:55:56.289Z,8.07
2018-04-29T19:58:24.720Z,9.57
2018-04-29T20:00:53.121Z,9.13
2018-04-29T20:03:21.526Z,7.30
2018-04-29T20:05:50.673Z,6.00
2018-04-29T20:08:19.187Z,7.50
2018-04-29T20:10:47.563Z,6.93
2018-04-29T20:13:15.984Z,6.23
2018-04-29T20:15:45.181Z,5.00
2018-04-29T20:18:14.309Z,6.37
2018-04-29T20:20:42.726Z,10.13
2018-04-29T20:23:11.130Z,6.50
2018-04-29T20:25:39.594Z,4.37
2018-04-29T20:28:07.977Z,9.83
2018-04-29T20:30:36.397Z,7.30
2018-04-29T20:33:05.572Z,4.40
2018-04-29T20:35:33.973Z,7.40
2018-04-29T20:38:02.470Z,5.70
2018-04-29T20:40:30.786Z,5.20
2018-04-29T20:42:59.227Z,7.03
2018-04-29T20:45:27.603Z,5.70
2018-04-29T20:47:56.114Z,6.37
2018-04-29T20:50:25.275Z,5.90
2018-04-29T20:52:53.658Z,6.00
2018-04-29T20:55:22.137Z,6.50
2018-04-29T20:57:51.285Z,9.43
2018-04-29T21:00:20.446Z,5.93
2018-04-29T21:02:48.828Z,6.23
2018-04-29T21:05:17.202Z,7.63
2018-04-29T21:07:45.620Z,5.70
2018-04-29T21:10:14.093Z,6.70
2018-04-29T21:12:42.481Z,7.00
2018-04-29T21:15:10.890Z,4.77
2018-04-29T21:17:39.282Z,6.50
2018-04-29T21:20:07.679Z,6.10
2018-04-29T21:22:36.098Z,5.57
2018-04-29T21:25:04.469Z,8.30
2018-04-29T21:27:32.910Z,7.53
2018-04-29T21:30:01.318Z,8.30
2018-04-29T21:32:29.751Z,5.80
2018-04-29T21:34:58.161Z,17.13
2018-04-29T21:37:26.574Z,11.47
2018-04-29T21:39:55.063Z,10.23
2018-04-29T21:42:23.461Z,7.30
2018-04-29T21:44:51.895Z,7.37
2018-04-29T21:47:21.954Z,6.43
2018-04-29T21:49:50.378Z,7.43
2018-04-29T21:52:19.530Z,7.80
2018-04-29T21:54:47.937Z,11.23
2018-04-29T21:57:16.345Z,7.23
2018-04-29T21:59:44.783Z,11.00
2018-04-29T22:02:13.236Z,8.23
2018-04-29T22:04:42.448Z,9.07
2018-04-29T22:07:11.139Z,12.90
2018-04-29T22:09:39.572Z,10.20
2018-04-29T22:12:08.023Z,9.70
2018-04-29T22:14:36.435Z,10.33
2018-04-29T22:17:04.829Z,13.33
2018-04-29T22:19:33.261Z,14.40
2018-04-29T22:22:01.677Z,17.50
2018-04-29T22:24:30.135Z,22.37
2018-04-29T22:26:58.543Z,22.73
2018-04-29T22:29:26.919Z,25.50
2018-04-29T22:31:55.326Z,38.50
2018-04-29T22:34:23.733Z,29.07
2018-04-29T22:36:53.101Z,32.47
2018-04-29T22:39:21.490Z,38.20
2018-04-29T22:41:51.448Z,37.37
2018-04-29T22:44:20.624Z,36.60
2018-04-29T22:46:49.003Z,37.43
2018-04-29T22:49:17.371Z,37.80
2018-04-29T22:51:45.857Z,38.77
2018-04-29T22:54:14.271Z,39.70
2018-04-29T22:56:42.686Z,37.80
2018-04-29T22:59:11.124Z,38.30
2018-04-29T23:01:39.519Z,42.87
2018-04-29T23:04:07.906Z,34.27
2018-04-29T23:06:36.298Z,21.67
2018-04-29T23:09:06.217Z,19.13
2018-04-29T23:11:35.511Z,15.87
2018-04-29T23:14:04.666Z,13.97
2018-04-29T23:16:33.050Z,11.93
2018-04-29T23:19:01.446Z,7.40
2018-04-29T23:21:29.831Z,10.03
2018-04-29T23:23:58.962Z,12.30
2018-04-29T23:26:28.125Z,5.27
2018-04-29T23:28:56.591Z,8.20
2018-04-29T23:31:24.999Z,5.63
2018-04-29T23:33:53.369Z,9.67
2018-04-29T23:36:21.780Z,5.33
2018-04-29T23:38:50.166Z,10.73
2018-04-29T23:41:18.553Z,5.77
2018-04-29T23:43:46.941Z,5.87
2018-04-29T23:46:16.093Z,5.60
2018-04-29T23:48:44.545Z,6.03
2018-04-29T23:51:13.673Z,9.93
2018-04-29T23:53:42.078Z,7.27
2018-04-29T23:56:10.454Z,8.87
2018-04-29T23:58:38.833Z,10.70
